Arthur Monteiro

Recruteur - Flamengo
16 Déc 2027
Jeudi
Processus

Personnalité

Adaptabilité (9) Ambition (1) Controverse (16) Loyauté (4) Pression (13) Professionnalisme (19) Sportivité (20) Tempérament (10)

Profil

Style d'entraînement Démocratique
Diplôme Continental C
Détermination 13
Gestion des joueurs 14
Motivation 10
Discipline 8
Satisfaction professionnelle
100%
Fatigue
0%
Rôle Recruteur
Salaire 103.7K p/s
Contrat 14.03.2028

Performance

Comportement Bon
Efficacité de l'entraînement
59%
Développement des joueurs
35%
Prévention des blessures
55%
Mise en place tactique
80%

Événements récents

A participé à une réunion de recrutement maintenant
A participé à une réunion de recrutement 7j
A recommandé une cible de transfert 7j
A participé à une réunion de recrutement 14j
A recommandé une cible de transfert 14j
A participé à une réunion de recrutement 14j
A participé à une réunion de recrutement 14j
A présenté un dossier au conseil 14j

Suivi en cours

238
Joueur Club Statut Capacité Confiance Observé Dernière observation Dernier vote
Victor Sá São Paulo Perdu 124 / 122 86% 1 13.12.2027 -
Eduardo Sasha Bragantino Perdu 127 / 127 86% 1 04.12.2027 -
Bruninho Bragantino Actif 133 / 136 42% 1 / 1m 25.08.2027 -
Ruan Tressoldi Atlético Mineiro Actif 118 / 124 83% 1 19.07.2027 Approuver
Diego Hernández Sport Recife Actif 122 / 122 30% 1 / 1m 07.07.2027 -
Federico Chiesa Liverpool Actif 159 / 151 40% 5 30.05.2027 -
Bradley Barcola Liverpool Actif 158 / 161 40% 5 30.05.2027 -
Borja Sainz Fiorentina Actif 148 / 144 40% 8 30.05.2027 -
Jérémy Doku Manchester City Actif 173 / 161 40% 3 28.05.2027 -
Moisés Caicedo Chelsea Actif 165 / 164 40% 5 28.05.2027 -
Gabriel Martinelli Brighton Actif 165 / 165 40% 2 28.05.2027 -
Georginio Rutter Brighton Actif 151 / 149 40% 3 27.05.2027 -
Kai Havertz Arsenal Actif 162 / 158 40% 3 27.05.2027 -
Harry Clarke Preston Actif 126 / 126 40% 2 27.05.2027 -
Vinícius Júnior Arsenal Actif 180 / 171 40% 4 26.05.2027 -
Xavi Simons Tottenham Actif 162 / 157 40% 2 26.05.2027 -
Derensili Sanches Fernandes Huddersfield Town Actif 130 / 128 40% 2 25.05.2027 -
Cole Palmer Chelsea Actif 174 / 169 40% 2 25.05.2027 Plus d'infos
Harry Wilson Leeds United Actif 149 / 145 40% 2 24.05.2027 -
Phil Foden Manchester City Actif 176 / 170 40% 4 24.05.2027 -
Carlos Vicente Birmingham Actif 145 / 143 40% 4 23.05.2027 -
Kerem Aktürkoğlu Fenerbahce Actif 141 / 146 40% 2 23.05.2027 -
Callum Doyle Wrexham Actif 131 / 132 40% 2 23.05.2027 -
Tyler Adams Bournemouth Actif 153 / 155 40% 2 22.05.2027 -
Reece James Chelsea Actif 175 / 170 40% 1 22.05.2027 -
Nuno Tavares Lazio Actif 150 / 147 40% 1 21.05.2027 -
Nico González Newcastle United Actif 156 / 159 40% 1 21.05.2027 -
Dango Ouattara Brentford Actif 145 / 140 40% 2 20.05.2027 -
Ronald Swansea City Actif 128 / 127 40% 1 20.05.2027 -
Matheus Araújo Oeste Actif 89 / 89 30% 1 / 1m 19.05.2027 -
Wellerson Sampaio Correa Actif 101 / 101 30% 1 / 1m 19.05.2027 -
Matthijs de Ligt Manchester United Actif 156 / 166 40% 2 17.05.2027 -
Curtis Jones Inter Actif 164 / 156 40% 4 17.05.2027 -
Alexander Isak Liverpool Actif 172 / 172 40% 2 17.05.2027 -
Isaiah Jones Luton Town Actif 128 / 129 40% 1 17.05.2027 -
Jan Paul van Hecke Tottenham Actif 160 / 154 40% 1 16.05.2027 -
William Saliba Arsenal Actif 175 / 177 40% 1 16.05.2027 -
Sven Botman Newcastle United Actif 160 / 154 40% 1 16.05.2027 -
Mats Wieffer Brighton Actif 143 / 148 40% 4 14.05.2027 -
Cody Gakpo Liverpool Actif 156 / 158 40% 1 14.05.2027 -
Alessandro Buongiorno Sassuolo Actif 153 / 157 40% 1 14.05.2027 -
Jacob Ramsey Newcastle United Actif 154 / 151 40% 2 11.05.2027 -
Mohammed Kudus Tottenham Actif 163 / 155 40% 3 11.05.2027 -
Kiernan Dewsbury-Hall Everton Actif 148 / 147 40% 2 11.05.2027 -
Tom Fellows Southampton Actif 134 / 131 40% 3 09.05.2027 -
Florian Wirtz Liverpool Actif 173 / 178 40% 2 09.05.2027 -
Rayan Cherki Manchester City Actif 161 / 159 40% 1 09.05.2027 -
Noussair Mazraoui Manchester United Actif 152 / 149 40% 3 08.05.2027 -
Francisco Conceição Juventus Actif 158 / 157 40% 1 07.05.2027 -
Kasey McAteer Ipswich Town Actif 126 / 127 40% 1 06.05.2027 -
Carlos Alcaraz Everton Actif 144 / 150 40% 4 03.05.2027 -
Nicolas Jackson Aston Villa Actif 154 / 152 40% 1 02.05.2027 -
Antoine Semenyo Manchester City Actif 165 / 152 40% 1 01.05.2027 -
Martin Ødegaard Arsenal Actif 184 / 178 40% 1 01.05.2027 -
João Pedro Chelsea Actif 157 / 160 40% 3 30.04.2027 Observer
Giacomo Raspadori Atalanta Actif 153 / 146 40% 7 30.04.2027 -
Ryan Sessegnon Fulham Actif 146 / 144 40% 1 29.04.2027 -
Sandro Tonali Tottenham Actif 173 / 175 40% 1 27.04.2027 -
Kevin Fulham Actif 147 / 147 40% 1 27.04.2027 -
Matt O'Riley Brighton Actif 144 / 148 40% 1 26.04.2027 -
Callum Hudson-Odoi Nottingham Forest Actif 147 / 151 40% 1 26.04.2027 -
William Gomes Porto Actif 148 / 140 40% 6 24.04.2027 -
Rico Lewis Manchester City Actif 147 / 158 40% 2 23.04.2027 -
Williams Manyama SuperSport United Actif 119 / 114 40% 1 23.04.2027 -
Jake O'Brien Everton Actif 147 / 153 40% 1 23.04.2027 -
Rodrigo Zalazar Sporting CP Actif 151 / 153 40% 2 21.04.2027 -
Morgan Rogers Chelsea Actif 164 / 163 40% 1 21.04.2027 -
Alejandro Zendejas Club America Actif 143 / 136 40% 5 20.04.2027 -
Iván Fresneda Sporting CP Actif 139 / 139 40% 3 18.04.2027 -
Francisco Moura Lusitânia Lourosa Actif 140 / 143 40% 4 18.04.2027 -
Mason Mount Manchester United Actif 151 / 151 40% 1 18.04.2027 -
Sergi Altimira Sporting CP Actif 137 / 143 40% 1 18.04.2027 -
Quinten Timber Crystal Palace Actif 155 / 147 40% 1 18.04.2027 -
Dodi Lukébakio Benfica Actif 149 / 143 40% 5 16.04.2027 -
Telmo Arcanjo Vitoria Guimaraes Actif 129 / 117 40% 2 15.04.2027 -
Ole Pohlmann Rio Ave Actif 123 / 125 40% 2 15.04.2027 -
Makan Aïko Tondela Actif 119 / 113 40% 2 14.04.2027 -
Finn Azaz Southampton Actif 129 / 131 40% 1 14.04.2027 -
Adrien Truffert Bournemouth Actif 156 / 155 40% 1 13.04.2027 -
João Mendes Vitoria Guimaraes Actif 122 / 122 40% 1 12.04.2027 -
Rodrigo Pinheiro Famalicao Actif 125 / 132 40% 1 12.04.2027 -
Welington Southampton Actif 127 / 131 40% 1 12.04.2027 -
Mario Dorgeles Braga Actif 132 / 133 40% 1 12.04.2027 -
Pau Víctor AVS Actif 138 / 129 40% 8 11.04.2027 -
Geny Sporting CP Actif 145 / 144 40% 5 11.04.2027 -
Naïs Djouahra Arouca Actif 126 / 115 40% 2 11.04.2027 -
Tamble Monteiro Rio Ave Actif 115 / 113 40% 1 06.04.2027 -
Joe Gelhardt Hull City Actif 130 / 140 40% 1 06.04.2027 -
Gustavo Silva Vitoria Guimaraes Actif 124 / 126 40% 3 05.04.2027 -
Nordi Mukiele Sunderland Actif 148 / 141 40% 3 03.04.2027 -
Xaver Schlager Nottingham Forest Actif 145 / 142 40% 4 03.04.2027 -
Ismaïla Sarr Crystal Palace Actif 151 / 143 40% 3 03.04.2027 -
Anton Stach Leeds United Perdu 151 / 146 40% 3 02.04.2027 -
Osame Sahraoui LOSC Lille Actif 147 / 139 40% 4 31.03.2027 -
Hwang In-Beom Porto Actif 147 / 138 40% 4 31.03.2027 -
Che Adams Torino Actif 140 / 135 40% 1 31.03.2027 -
Joaquín Panichelli Le Havre AC Actif 149 / 139 40% 3 30.03.2027 -
Alfonso Trezza Arouca Actif 124 / 126 40% 2 29.03.2027 -
Morgan Whittaker Middlesbrough Actif 137 / 131 40% 4 29.03.2027 -
Santi García Gil Vicente Actif 131 / 137 40% 3 29.03.2027 -
Víctor Gómez Braga Actif 134 / 143 40% 3 28.03.2027 -
Malick Fofana Sunderland Actif 137 / 141 40% 2 28.03.2027 -
Heorhii Sudakov Benfica Actif 142 / 146 40% 4 26.03.2027 -
Tino Livramento Newcastle United Actif 161 / 151 40% 1 25.03.2027 -
Sofiane Diop OGC Nice Actif 141 / 145 40% 1 25.03.2027 -
Aaron Hickey Brentford Actif 144 / 152 40% 2 24.03.2027 -
Alberto Costa Porto Actif 149 / 153 40% 9 24.03.2027 -
Iker Benito Queretaro Actif 126 / 123 40% 2 24.03.2027 -
Ozziel Herrera Tigres Actif 132 / 131 40% 3 23.03.2027 -
Ansu Fati Monaco Actif 136 / 132 40% 1 22.03.2027 -
Figueiredo Alverca Actif 131 / 123 40% 6 20.03.2027 -
Valery Académico de Viseu Actif 122 / 120 40% 1 20.03.2027 -
Ritsu Doan Benfica Actif 147 / 156 40% 3 18.03.2027 -
Jhon Arias Palmeiras Actif 139 / 143 40% 2 18.03.2027 -
Fotis Ioannidis Rio Ave Actif 141 / 132 40% 2 17.03.2027 -
José Manuel López Palmeiras Actif 136 / 135 40% 5 17.03.2027 -
Erick Sánchez OGC Nice Actif 148 / 140 40% 7 17.03.2027 -
Leandro Antonetti Estrela da Amadora Actif 102 / 105 40% 1 17.03.2027 -
Yankuba Minteh Brighton Actif 154 / 159 40% 1 17.03.2027 -
Barış Alper Yılmaz Galatasaray Actif 145 / 151 40% 4 16.03.2027 -
Félix Lemaréchal Club Brugge Actif 143 / 144 40% 3 12.03.2027 -
Roberto Fernández Braga Actif 144 / 139 40% 3 11.03.2027 -
Amine Adli Bournemouth Actif 139 / 149 40% 2 08.03.2027 -
Gianluca Prestianni Benfica Actif 138 / 141 40% 2 04.03.2027 -
Orbelín Pineda Monterrey Actif 143 / 137 40% 2 03.03.2027 -
Dylan Nandín Arouca Actif 117 / 112 40% 1 01.03.2027 -
Nicolò Tresoldi Club Brugge Actif 132 / 140 40% 1 01.03.2027 -
Florentino Luís Ipswich Town Actif 137 / 133 40% 1 26.02.2027 -
Adriano Bertaccini Anderlecht Actif 127 / 127 40% 1 23.02.2027 -
Marezi Portsmouth Actif 120 / 124 40% 1 23.02.2027 -
Jalen Blesa Rio Ave Actif 115 / 125 40% 1 21.02.2027 -
Adnan Courtois KV Oostende Actif 139 / 134 40% 3 19.02.2027 -
Vinícius Lopes Santa Clara Actif 117 / 116 40% 1 19.02.2027 -
Will Lankshear Middlesbrough Actif 124 / 135 40% 1 19.02.2027 -
Toni Fruk KV Mechelen Actif 136 / 126 40% 1 19.02.2027 -
Jan Virgili Club Brugge Actif 134 / 126 40% 1 19.02.2027 -
Gabri Martínez Braga Actif 136 / 127 40% 2 17.02.2027 -
Juanlu Bournemouth Actif 144 / 140 40% 1 15.02.2027 -
Beni Mukendi Vitoria Guimaraes Actif 130 / 123 40% 1 15.02.2027 -
Victor Froholdt Porto Actif 144 / 163 40% 4 13.02.2027 -
Taichi Fukui Arouca Actif 130 / 136 40% 1 11.02.2027 -
Óscar Mingueza Crystal Palace Actif 151 / 146 40% 5 10.02.2027 -
Brian Rodríguez Club America Actif 128 / 124 40% 1 10.02.2027 -
Razvan Balasa Crvena Zvezda Actif 149 / 151 40% 8 07.02.2027 -
Henrique Araújo Casa Pia Actif 126 / 113 40% 2 06.02.2027 -
Guilherme Neiva AVS Actif 109 / 109 40% 1 05.02.2027 -
Evidence Makgopa Orlando Pirates Actif 112 / 119 40% 1 05.02.2027 -
Olívio Tomé Benfica Actif 111 / 118 40% 1 03.02.2027 -
Luís Henrique Inter Actif 139 / 147 40% 1 03.02.2027 -
Gonzalo Fulham Actif 142 / 149 40% 1 03.02.2027 -
Igor Burnley Actif 142 / 139 40% 1 03.02.2027 -
Aune Heggebø West Bromwich Albion Actif 126 / 132 40% 1 31.01.2027 -
Yousef Salech Cardiff City Actif 131 / 116 40% 1 31.01.2027 -
Martín Tejón Maritimo Actif 119 / 123 40% 2 25.01.2027 -
Miguel Falé Pacos de Ferreira Actif 100 / 111 40% 2 25.01.2027 -
Luis Vázquez Birmingham Actif 134 / 129 40% 1 25.01.2027 -
Gabriel Veron Porto Actif 129 / 125 40% 3 19.01.2027 -
Themba Ngcobo SuperSport United Actif 116 / 116 40% 1 08.01.2027 -
Manfred Ugalde Spartak Moscow Actif 138 / 127 40% 1 04.01.2027 -
Dawda Camara Alverca Actif 113 / 121 40% 1 23.12.2026 -
Ruben van Bommel Ferencvaros Actif 139 / 141 40% 1 22.12.2026 -
Matheus Pereira Cruzeiro Actif 138 / 144 40% 1 21.12.2026 -
Jean-Philippe Mateta Crystal Palace Actif 151 / 159 40% 11 30.11.2026 -
João Neves Paris Saint-Germain Actif 164 / 170 40% 1 29.11.2026 -
Rúben Neves Al-Hilal Actif 144 / 150 40% 1 28.11.2026 -
Leo Castledine Middlesbrough Actif 123 / 138 40% 1 27.11.2026 -
Robin Roefs Sunderland Actif 142 / 138 40% 1 25.11.2026 -
Vanderson Monaco Actif 145 / 146 40% 1 21.11.2026 -
Omar Alderete Sunderland Actif 154 / 148 40% 1 20.11.2026 -
Lewis Cook Bournemouth Actif 144 / 147 40% 3 19.11.2026 -
Vangelis Pavlidis Twente Actif 149 / 157 40% 8 17.11.2026 -
Lisandro Martínez Manchester United Actif 159 / 161 40% 4 17.11.2026 -
Dominic Solanke Tottenham Actif 153 / 146 40% 4 17.11.2026 -
Tiago Santos LOSC Lille Actif 141 / 138 40% 2 15.11.2026 -
Steven Bergwijn Al-Ittihad Actif 144 / 152 40% 4 13.11.2026 -
Pau Torres Aston Villa Actif 155 / 141 40% 3 09.11.2026 -
Randal Kolo Muani Juventus Actif 146 / 150 40% 3 09.11.2026 -
Matvey Safonov Paris Saint-Germain Actif 149 / 151 40% 4 07.11.2026 -
Senne Lammens Manchester United Actif 141 / 146 40% 2 07.11.2026 -
Patrick Berg Bodo/Glimt Actif 137 / 147 40% 2 03.11.2026 -
Tomás Araújo Benfica Actif 147 / 136 40% 3 03.11.2026 -
Luis Suárez Chelsea Actif 158 / 161 40% 4 01.11.2026 -
Fikayo Tomori AC Milan Actif 145 / 154 40% 1 30.10.2026 -
Pedro Porro Tottenham Actif 146 / 136 40% 1 27.10.2026 -
Cheick Doucouré Crystal Palace Actif 146 / 144 40% 2 24.10.2026 -
Alan Varela Porto Actif 138 / 138 40% 2 22.10.2026 -
Gonçalo Inácio Sporting CP Actif 151 / 147 40% 2 21.10.2026 -
Dean Henderson Crystal Palace Actif 147 / 139 40% 2 19.10.2026 -
Endrick Real Madrid Actif 141 / 148 40% 1 17.10.2026 -
Malick Thiaw West Ham United Actif 156 / 146 40% 2 13.10.2026 -
Elliot Anderson Manchester City Actif 155 / 149 40% 1 13.10.2026 -
Diogo Costa Manchester City Actif 156 / 155 40% 1 11.10.2026 -
Erick Reyes Toluca Actif 135 / 134 40% 1 08.10.2026 -
Conor Gallagher Tottenham Actif 149 / 157 40% 2 02.10.2026 -
Ferdi Kadıoğlu Brighton Actif 148 / 149 40% 1 02.10.2026 -
Mateo Mendoza Godoy Cruz Actif 118 / 121 40% 1 01.10.2026 -
Jack Hinshelwood Brighton Actif 141 / 143 40% 1 30.09.2026 -
Pierre Kalulu Juventus Actif 157 / 161 40% 1 30.09.2026 -
Ousmane Diomande Nottingham Forest Actif 152 / 145 40% 1 29.09.2026 -
Gabriel Gudmundsson Leeds United Actif 145 / 151 40% 1 27.09.2026 -
Ian Maatsen Aston Villa Actif 145 / 145 40% 1 27.09.2026 -
Malo Gusto Chelsea Actif 146 / 156 40% 2 26.09.2026 -
Martim Fernandes Porto Actif 133 / 138 40% 1 26.09.2026 -
Matty Cash Aston Villa Actif 152 / 156 40% 1 21.09.2026 -
Guillaume Restes Toulouse FC Actif 129 / 128 40% 1 20.09.2026 -
Yehvann Diouf OGC Nice Actif 136 / 131 40% 1 20.09.2026 -
Josep Martínez Inter Actif 134 / 138 40% 1 19.09.2026 -
Edoardo Motta Lazio Actif 113 / 135 40% 1 19.09.2026 -
Francesco Pio Esposito Inter Actif 139 / 136 40% 2 16.09.2026 -
Benjamin White Arsenal Actif 154 / 145 40% 2 14.09.2026 -
Marcus Rashford Manchester United Actif 161 / 153 40% 6 13.09.2026 -
Antonee Robinson Fulham Actif 157 / 141 40% 1 13.09.2026 -
Santiago Castro AS Roma Actif 146 / 154 40% 1 10.09.2026 -
Assane Diao Lazio Actif 137 / 138 40% 1 07.09.2026 -
Gonçalo Ramos AC Milan Actif 157 / 157 40% 2 02.09.2026 -
Dušan Vlahović Juventus Actif 159 / 160 40% 1 02.09.2026 -
Erick Vitória Actif 132 / 132 30% 1 / 1m 26.08.2026 -
Jarrod Bowen West Ham United Actif 159 / 146 40% 2 25.08.2026 -
Matías Fernández-Pardo Newcastle United Actif 135 / 146 40% 1 25.08.2026 -
Luca Koleosho Paris FC Actif 121 / 141 40% 1 20.08.2026 -
Jader Santa Clara Actif 114 / 117 56% 2 / 2m 19.08.2026 -
Fabri Vitória Actif 124 / 124 52% 1 / 1m 19.08.2026 -
Anderson Pato Vitória Actif 100 / 103 42% 1 / 1m 19.08.2026 -
Ilyas Ansah Hull City Actif 127 / 138 40% 1 18.08.2026 -
Ferran Torres Paris Saint-Germain Actif 166 / 156 40% 1 18.08.2026 -
Mateus Mané Manchester United Actif 130 / 147 40% 1 15.08.2026 -
Lima Atletico Goianiense Actif 84 / 89 30% 1 / 1m 12.08.2026 -
André Luís Mirassol Actif 123 / 123 30% 1 / 1m 12.08.2026 -
Georges Mikautadze Villarreal Actif 151 / 156 40% 1 09.08.2026 -
Rayan Bournemouth Actif 136 / 145 40% 1 07.08.2026 -
Senny Mayulu Paris Saint-Germain Actif 142 / 141 40% 1 06.08.2026 -
Donyell Malen AS Roma Actif 141 / 148 40% 1 06.08.2026 -
Dani Vivian Athletic Bilbao Actif 155 / 159 40% 1 06.08.2026 -
Marc Cucurella Real Madrid Actif 155 / 140 40% 1 06.08.2026 -
Jaka Bijol Leeds United Actif 149 / 143 40% 1 06.08.2026 -
Adam Wharton Crystal Palace Actif 142 / 147 40% 1 03.08.2026 -
João Simões Sporting CP Actif 131 / 138 40% 1 02.08.2026 -
Ismael Saibari Bayern Munich Actif 148 / 143 40% 1 01.08.2026 -